sensor_id;sensor_type;location;lat;lon;timestamp;temperature;humidity
10873;DHT22;34586;53.616;10.032;2024-03-23T00:52:45;7.60;99.90
10873;DHT22;34586;53.616;10.032;2024-03-23T00:55:11;7.70;99.90
10873;DHT22;34586;53.616;10.032;2024-03-23T00:57:37;7.60;99.90
10873;DHT22;34586;53.616;10.032;2024-03-23T01:00:03;7.60;99.90
10873;DHT22;34586;53.616;10.032;2024-03-23T01:02:31;7.50;99.90
10873;DHT22;34586;53.616;10.032;2024-03-23T01:04:57;7.50;99.90
10873;DHT22;34586;53.616;10.032;2024-03-23T01:07:22;7.50;99.90
10873;DHT22;34586;53.616;10.032;2024-03-23T01:09:48;7.50;99.90
10873;DHT22;34586;53.616;10.032;2024-03-23T01:12:13;7.40;99.90
10873;DHT22;34586;53.616;10.032;2024-03-23T01:14:39;7.40;99.90
10873;DHT22;34586;53.616;10.032;2024-03-23T01:17:05;7.40;99.90
10873;DHT22;34586;53.616;10.032;2024-03-23T01:19:30;7.40;99.90
10873;DHT22;34586;53.616;10.032;2024-03-23T01:21:56;7.40;99.90
10873;DHT22;34586;53.616;10.032;2024-03-23T01:24:21;7.40;99.90
10873;DHT22;34586;53.616;10.032;2024-03-23T01:26:47;7.40;99.90
10873;DHT22;34586;53.616;10.032;2024-03-23T01:29:12;7.40;99.90
10873;DHT22;34586;53.616;10.032;2024-03-23T01:31:38;7.40;99.90
10873;DHT22;34586;53.616;10.032;2024-03-23T01:34:04;7.40;99.90
10873;DHT22;34586;53.616;10.032;2024-03-23T01:36:29;7.40;99.90
10873;DHT22;34586;53.616;10.032;2024-03-23T01:38:55;7.40;99.90
10873;DHT22;34586;53.616;10.032;2024-03-23T01:41:21;7.40;99.90
10873;DHT22;34586;53.616;10.032;2024-03-23T01:43:46;7.30;99.90
10873;DHT22;34586;53.616;10.032;2024-03-23T01:46:13;7.30;99.90
10873;DHT22;34586;53.616;10.032;2024-03-23T01:48:38;7.30;99.90
10873;DHT22;34586;53.616;10.032;2024-03-23T01:51:04;7.20;99.90
10873;DHT22;34586;53.616;10.032;2024-03-23T01:53:30;7.20;99.90
10873;DHT22;34586;53.616;10.032;2024-03-23T01:55:56;7.20;99.90
10873;DHT22;34586;53.616;10.032;2024-03-23T01:58:22;7.20;99.90
10873;DHT22;34586;53.616;10.032;2024-03-23T02:00:48;7.20;99.90
10873;DHT22;34586;53.616;10.032;2024-03-23T02:03:27;7.10;99.90
10873;DHT22;34586;53.616;10.032;2024-03-23T02:05:54;7.10;99.90
10873;DHT22;34586;53.616;10.032;2024-03-23T02:08:21;7.20;99.90
10873;DHT22;34586;53.616;10.032;2024-03-23T02:10:48;7.10;99.90
10873;DHT22;34586;53.616;10.032;2024-03-23T02:13:15;7.10;99.90
10873;DHT22;34586;53.616;10.032;2024-03-23T02:15:41;7.10;99.90
10873;DHT22;34586;53.616;10.032;2024-03-23T02:18:08;7.10;99.90
10873;DHT22;34586;53.616;10.032;2024-03-23T02:20:34;7.10;99.90
10873;DHT22;34586;53.616;10.032;2024-03-23T02:23:00;7.10;99.90
10873;DHT22;34586;53.616;10.032;2024-03-23T02:25:26;7.00;99.90
10873;DHT22;34586;53.616;10.032;2024-03-23T02:27:51;7.00;99.90
10873;DHT22;34586;53.616;10.032;2024-03-23T02:30:19;6.90;99.90
10873;DHT22;34586;53.616;10.032;2024-03-23T02:32:45;6.90;99.90
10873;DHT22;34586;53.616;10.032;2024-03-23T02:35:11;6.90;99.90
10873;DHT22;34586;53.616;10.032;2024-03-23T02:37:36;6.80;99.90
10873;DHT22;34586;53.616;10.032;2024-03-23T02:40:02;6.80;99.90
10873;DHT22;34586;53.616;10.032;2024-03-23T02:42:28;6.80;99.90
10873;DHT22;34586;53.616;10.032;2024-03-23T02:44:54;6.80;99.90
10873;DHT22;34586;53.616;10.032;2024-03-23T02:47:19;6.70;99.90
10873;DHT22;34586;53.616;10.032;2024-03-23T02:49:45;6.70;99.90
10873;DHT22;34586;53.616;10.032;2024-03-23T02:52:10;6.70;99.90
10873;DHT22;34586;53.616;10.032;2024-03-23T02:54:36;6.70;99.90
10873;DHT22;34586;53.616;10.032;2024-03-23T02:57:02;6.80;99.90
10873;DHT22;34586;53.616;10.032;2024-03-23T02:59:28;6.80;99.90
10873;DHT22;34586;53.616;10.032;2024-03-23T03:01:53;6.80;99.90
10873;DHT22;34586;53.616;10.032;2024-03-23T03:04:19;6.70;99.90
10873;DHT22;34586;53.616;10.032;2024-03-23T03:06:47;6.70;99.90
10873;DHT22;34586;53.616;10.032;2024-03-23T03:09:13;6.70;99.90
10873;DHT22;34586;53.616;10.032;2024-03-23T03:11:38;6.70;99.90
10873;DHT22;34586;53.616;10.032;2024-03-23T03:14:04;6.70;99.90
10873;DHT22;34586;53.616;10.032;2024-03-23T03:16:29;6.70;99.90
10873;DHT22;34586;53.616;10.032;2024-03-23T03:18:55;6.70;99.90
10873;DHT22;34586;53.616;10.032;2024-03-23T03:21:21;6.70;99.90
10873;DHT22;34586;53.616;10.032;2024-03-23T03:23:47;6.70;99.90
10873;DHT22;34586;53.616;10.032;2024-03-23T03:26:18;6.70;99.90
10873;DHT22;34586;53.616;10.032;2024-03-23T03:28:44;6.80;99.90
10873;DHT22;34586;53.616;10.032;2024-03-23T03:31:14;6.70;99.90
10873;DHT22;34586;53.616;10.032;2024-03-23T03:33:40;6.70;99.90
10873;DHT22;34586;53.616;10.032;2024-03-23T03:36:05;6.70;99.90
10873;DHT22;34586;53.616;10.032;2024-03-23T03:38:31;6.70;99.90
10873;DHT22;34586;53.616;10.032;2024-03-23T03:40:57;6.70;99.90
10873;DHT22;34586;53.616;10.032;2024-03-23T03:43:24;6.70;99.90
10873;DHT22;34586;53.616;10.032;2024-03-23T03:45:54;6.70;99.90
10873;DHT22;34586;53.616;10.032;2024-03-23T03:48:20;6.70;99.90
10873;DHT22;34586;53.616;10.032;2024-03-23T03:50:45;6.70;99.90
10873;DHT22;34586;53.616;10.032;2024-03-23T03:53:11;6.70;99.90
10873;DHT22;34586;53.616;10.032;2024-03-23T03:55:37;6.60;99.90
10873;DHT22;34586;53.616;10.032;2024-03-23T03:58:02;6.60;99.90
10873;DHT22;34586;53.616;10.032;2024-03-23T04:00:28;6.60;99.90
10873;DHT22;34586;53.616;10.032;2024-03-23T04:02:53;6.60;99.90
10873;DHT22;34586;53.616;10.032;2024-03-23T04:05:19;6.60;99.90
10873;DHT22;34586;53.616;10.032;2024-03-23T04:07:45;6.60;99.90
10873;DHT22;34586;53.616;10.032;2024-03-23T04:10:11;6.60;99.90
10873;DHT22;34586;53.616;10.032;2024-03-23T04:12:37;6.60;99.90
10873;DHT22;34586;53.616;10.032;2024-03-23T04:15:03;6.50;99.90
10873;DHT22;34586;53.616;10.032;2024-03-23T04:17:31;6.50;99.90
10873;DHT22;34586;53.616;10.032;2024-03-23T04:20:02;6.50;99.90
10873;DHT22;34586;53.616;10.032;2024-03-23T04:22:29;6.50;99.90
10873;DHT22;34586;53.616;10.032;2024-03-23T04:24:55;6.50;99.90
10873;DHT22;34586;53.616;10.032;2024-03-23T04:27:25;6.50;99.90
10873;DHT22;34586;53.616;10.032;2024-03-23T04:29:51;6.50;99.90
10873;DHT22;34586;53.616;10.032;2024-03-23T04:32:17;6.50;99.90
10873;DHT22;34586;53.616;10.032;2024-03-23T04:34:43;6.50;99.90
10873;DHT22;34586;53.616;10.032;2024-03-23T04:37:09;6.50;99.90
10873;DHT22;34586;53.616;10.032;2024-03-23T04:39:38;6.50;99.90
10873;DHT22;34586;53.616;10.032;2024-03-23T04:42:04;6.50;99.90
10873;DHT22;34586;53.616;10.032;2024-03-23T04:44:30;6.50;99.90
10873;DHT22;34586;53.616;10.032;2024-03-23T04:46:57;6.50;99.90
10873;DHT22;34586;53.616;10.032;2024-03-23T04:49:22;6.50;99.90
10873;DHT22;34586;53.616;10.032;2024-03-23T04:51:48;6.50;99.90
10873;DHT22;34586;53.616;10.032;2024-03-23T04:54:13;6.50;99.90
10873;DHT22;34586;53.616;10.032;2024-03-23T04:56:39;6.50;99.90
10873;DHT22;34586;53.616;10.032;2024-03-23T04:59:05;6.50;99.90
10873;DHT22;34586;53.616;10.032;2024-03-23T05:01:31;6.50;99.90
10873;DHT22;34586;53.616;10.032;2024-03-23T05:03:57;6.50;99.90
10873;DHT22;34586;53.616;10.032;2024-03-23T05:06:24;6.50;99.90
10873;DHT22;34586;53.616;10.032;2024-03-23T05:08:50;6.50;99.90
10873;DHT22;34586;53.616;10.032;2024-03-23T05:11:15;6.60;99.90
10873;DHT22;34586;53.616;10.032;2024-03-23T05:13:41;6.60;99.90
10873;DHT22;34586;53.616;10.032;2024-03-23T05:16:07;6.60;99.90
10873;DHT22;34586;53.616;10.032;2024-03-23T05:18:34;6.60;99.90
10873;DHT22;34586;53.616;10.032;2024-03-23T05:20:59;6.60;99.90
10873;DHT22;34586;53.616;10.032;2024-03-23T05:23:26;6.60;99.90
10873;DHT22;34586;53.616;10.032;2024-03-23T05:25:52;6.60;99.90
10873;DHT22;34586;53.616;10.032;2024-03-23T05:28:18;6.70;99.90
10873;DHT22;34586;53.616;10.032;2024-03-23T05:30:44;6.60;99.90
10873;DHT22;34586;53.616;10.032;2024-03-23T05:33:09;6.50;99.90
10873;DHT22;34586;53.616;10.032;2024-03-23T05:35:35;6.60;99.90
10873;DHT22;34586;53.616;10.032;2024-03-23T05:38:01;6.60;99.90
10873;DHT22;34586;53.616;10.032;2024-03-23T05:40:27;6.60;99.90
10873;DHT22;34586;53.616;10.032;2024-03-23T05:42:53;6.60;99.90
10873;DHT22;34586;53.616;10.032;2024-03-23T05:45:19;6.50;99.90
10873;DHT22;34586;53.616;10.032;2024-03-23T05:47:45;6.60;99.90
10873;DHT22;34586;53.616;10.032;2024-03-23T05:50:10;6.60;99.90
10873;DHT22;34586;53.616;10.032;2024-03-23T05:52:38;6.60;99.90
10873;DHT22;34586;53.616;10.032;2024-03-23T05:55:07;6.60;99.90
10873;DHT22;34586;53.616;10.032;2024-03-23T05:57:33;6.70;99.90
10873;DHT22;34586;53.616;10.032;2024-03-23T05:59:58;6.70;99.90
10873;DHT22;34586;53.616;10.032;2024-03-23T06:02:24;6.70;99.90
10873;DHT22;34586;53.616;10.032;2024-03-23T06:04:50;6.70;99.90
10873;DHT22;34586;53.616;10.032;2024-03-23T06:07:15;6.70;99.90
10873;DHT22;34586;53.616;10.032;2024-03-23T06:09:42;6.70;99.90
10873;DHT22;34586;53.616;10.032;2024-03-23T06:12:08;6.70;99.90
10873;DHT22;34586;53.616;10.032;2024-03-23T06:14:35;6.70;99.90
10873;DHT22;34586;53.616;10.032;2024-03-23T06:17:00;6.70;99.90
10873;DHT22;34586;53.616;10.032;2024-03-23T06:19:27;6.70;99.90
10873;DHT22;34586;53.616;10.032;2024-03-23T06:21:53;6.70;99.90
10873;DHT22;34586;53.616;10.032;2024-03-23T06:24:22;6.70;99.90
10873;DHT22;34586;53.616;10.032;2024-03-23T06:26:48;6.80;99.90
10873;DHT22;34586;53.616;10.032;2024-03-23T06:29:14;6.80;99.90
10873;DHT22;34586;53.616;10.032;2024-03-23T06:31:39;6.80;99.90
10873;DHT22;34586;53.616;10.032;2024-03-23T06:34:05;6.80;99.90
10873;DHT22;34586;53.616;10.032;2024-03-23T06:36:30;6.80;99.90
10873;DHT22;34586;53.616;10.032;2024-03-23T06:38:56;6.90;99.90
10873;DHT22;34586;53.616;10.032;2024-03-23T06:41:22;6.80;99.90
10873;DHT22;34586;53.616;10.032;2024-03-23T06:43:48;6.90;99.90
10873;DHT22;34586;53.616;10.032;2024-03-23T06:46:13;6.90;99.90
10873;DHT22;34586;53.616;10.032;2024-03-23T06:48:39;6.90;99.90
10873;DHT22;34586;53.616;10.032;2024-03-23T06:51:05;7.00;99.90
10873;DHT22;34586;53.616;10.032;2024-03-23T06:53:32;6.80;99.90
10873;DHT22;34586;53.616;10.032;2024-03-23T06:55:57;6.90;99.90
10873;DHT22;34586;53.616;10.032;2024-03-23T06:58:24;6.90;99.90
10873;DHT22;34586;53.616;10.032;2024-03-23T07:00:50;6.90;99.90
10873;DHT22;34586;53.616;10.032;2024-03-23T07:03:17;6.90;99.90
10873;DHT22;34586;53.616;10.032;2024-03-23T07:05:42;6.80;99.90
10873;DHT22;34586;53.616;10.032;2024-03-23T07:08:08;6.80;99.90
10873;DHT22;34586;53.616;10.032;2024-03-23T07:10:34;6.70;99.90
10873;DHT22;34586;53.616;10.032;2024-03-23T07:13:01;6.70;99.90
10873;DHT22;34586;53.616;10.032;2024-03-23T07:15:26;6.70;99.90
10873;DHT22;34586;53.616;10.032;2024-03-23T07:17:52;6.80;99.90
10873;DHT22;34586;53.616;10.032;2024-03-23T07:20:18;6.80;99.90
10873;DHT22;34586;53.616;10.032;2024-03-23T07:22:46;6.80;99.90
10873;DHT22;34586;53.616;10.032;2024-03-23T07:25:13;6.80;99.90
10873;DHT22;34586;53.616;10.032;2024-03-23T07:27:38;6.90;99.90
10873;DHT22;34586;53.616;10.032;2024-03-23T07:30:05;7.00;99.90
10873;DHT22;34586;53.616;10.032;2024-03-23T07:32:30;7.10;99.90
10873;DHT22;34586;53.616;10.032;2024-03-23T07:34:56;7.30;99.90
10873;DHT22;34586;53.616;10.032;2024-03-23T07:37:22;7.40;99.90
10873;DHT22;34586;53.616;10.032;2024-03-23T07:39:47;7.40;99.90
10873;DHT22;34586;53.616;10.032;2024-03-23T07:42:13;7.60;99.90
10873;DHT22;34586;53.616;10.032;2024-03-23T07:44:38;7.60;99.90
10873;DHT22;34586;53.616;10.032;2024-03-23T07:47:05;7.70;99.90
10873;DHT22;34586;53.616;10.032;2024-03-23T07:49:30;7.70;99.90
10873;DHT22;34586;53.616;10.032;2024-03-23T07:51:56;7.60;99.90
10873;DHT22;34586;53.616;10.032;2024-03-23T07:54:21;7.50;99.90
10873;DHT22;34586;53.616;10.032;2024-03-23T07:56:47;7.50;99.90
10873;DHT22;34586;53.616;10.032;2024-03-23T07:59:13;7.50;99.90
10873;DHT22;34586;53.616;10.032;2024-03-23T08:01:38;7.60;99.90
10873;DHT22;34586;53.616;10.032;2024-03-23T08:04:05;7.70;99.90
10873;DHT22;34586;53.616;10.032;2024-03-23T08:06:31;7.80;99.90
10873;DHT22;34586;53.616;10.032;2024-03-23T08:08:57;7.80;99.90
10873;DHT22;34586;53.616;10.032;2024-03-23T08:11:27;7.90;99.90
10873;DHT22;34586;53.616;10.032;2024-03-23T08:13:53;7.90;99.90
10873;DHT22;34586;53.616;10.032;2024-03-23T08:16:19;8.00;99.90
10873;DHT22;34586;53.616;10.032;2024-03-23T08:18:44;8.10;99.90
10873;DHT22;34586;53.616;10.032;2024-03-23T08:21:10;8.30;99.90
10873;DHT22;34586;53.616;10.032;2024-03-23T08:23:36;8.30;99.90
10873;DHT22;34586;53.616;10.032;2024-03-23T08:26:14;8.40;99.90
10873;DHT22;34586;53.616;10.032;2024-03-23T08:28:40;8.20;99.90
10873;DHT22;34586;53.616;10.032;2024-03-23T08:31:08;8.30;99.90
10873;DHT22;34586;53.616;10.032;2024-03-23T08:33:34;8.40;99.90
10873;DHT22;34586;53.616;10.032;2024-03-23T08:36:05;8.50;99.90
10873;DHT22;34586;53.616;10.032;2024-03-23T08:38:31;8.50;99.90
10873;DHT22;34586;53.616;10.032;2024-03-23T08:40:58;8.60;99.90
10873;DHT22;34586;53.616;10.032;2024-03-23T08:43:24;8.60;99.90
10873;DHT22;34586;53.616;10.032;2024-03-23T08:45:49;8.80;99.90
10873;DHT22;34586;53.616;10.032;2024-03-23T08:48:15;9.00;99.90
10873;DHT22;34586;53.616;10.032;2024-03-23T08:50:41;9.10;99.90
10873;DHT22;34586;53.616;10.032;2024-03-23T08:53:06;9.10;99.90
10873;DHT22;34586;53.616;10.032;2024-03-23T08:55:32;9.20;99.90
10873;DHT22;34586;53.616;10.032;2024-03-23T08:57:58;9.30;99.90
10873;DHT22;34586;53.616;10.032;2024-03-23T09:00:23;9.20;99.90
10873;DHT22;34586;53.616;10.032;2024-03-23T09:02:49;9.20;99.90
10873;DHT22;34586;53.616;10.032;2024-03-23T09:05:15;9.30;99.90
10873;DHT22;34586;53.616;10.032;2024-03-23T09:07:41;9.20;99.90
10873;DHT22;34586;53.616;10.032;2024-03-23T09:10:07;9.20;99.90
10873;DHT22;34586;53.616;10.032;2024-03-23T09:12:33;9.30;99.90
10873;DHT22;34586;53.616;10.032;2024-03-23T09:14:58;9.60;98.60
10873;DHT22;34586;53.616;10.032;2024-03-23T09:17:24;9.80;28.80
10873;DHT22;34586;53.616;10.032;2024-03-23T09:19:49;10.10;1.00
10873;DHT22;34586;53.616;10.032;2024-03-23T09:22:15;10.30;1.00
10873;DHT22;34586;53.616;10.032;2024-03-23T09:24:41;10.10;1.00
10873;DHT22;34586;53.616;10.032;2024-03-23T09:27:07;10.10;1.00
10873;DHT22;34586;53.616;10.032;2024-03-23T09:29:33;9.90;1.00
10873;DHT22;34586;53.616;10.032;2024-03-23T09:31:58;9.90;1.00
10873;DHT22;34586;53.616;10.032;2024-03-23T09:34:24;9.70;1.00
10873;DHT22;34586;53.616;10.032;2024-03-23T09:36:53;9.50;99.90
10873;DHT22;34586;53.616;10.032;2024-03-23T09:39:18;9.50;99.90
10873;DHT22;34586;53.616;10.032;2024-03-23T09:41:45;9.50;99.90
10873;DHT22;34586;53.616;10.032;2024-03-23T09:44:10;9.60;66.10
10873;DHT22;34586;53.616;10.032;2024-03-23T09:46:36;9.60;99.90
10873;DHT22;34586;53.616;10.032;2024-03-23T09:49:07;9.70;99.90
10873;DHT22;34586;53.616;10.032;2024-03-23T09:51:35;9.90;99.90
10873;DHT22;34586;53.616;10.032;2024-03-23T09:54:01;10.00;99.90
10873;DHT22;34586;53.616;10.032;2024-03-23T09:56:27;10.10;99.90
10873;DHT22;34586;53.616;10.032;2024-03-23T09:59:00;10.20;99.90
10873;DHT22;34586;53.616;10.032;2024-03-23T10:01:26;10.30;99.90
10873;DHT22;34586;53.616;10.032;2024-03-23T10:03:52;10.30;99.90
10873;DHT22;34586;53.616;10.032;2024-03-23T10:06:21;10.40;99.90
10873;DHT22;34586;53.616;10.032;2024-03-23T10:08:47;10.20;11.10
10873;DHT22;34586;53.616;10.032;2024-03-23T10:11:16;9.90;99.90
10873;DHT22;34586;53.616;10.032;2024-03-23T10:13:43;9.30;99.90
10873;DHT22;34586;53.616;10.032;2024-03-23T10:16:09;9.00;99.90
10873;DHT22;34586;53.616;10.032;2024-03-23T10:18:41;8.70;99.90
10873;DHT22;34586;53.616;10.032;2024-03-23T10:21:09;8.70;99.90
10873;DHT22;34586;53.616;10.032;2024-03-23T10:23:37;8.80;99.90
10873;DHT22;34586;53.616;10.032;2024-03-23T10:26:18;8.80;99.90
10873;DHT22;34586;53.616;10.032;2024-03-23T10:28:58;9.00;99.90
10873;DHT22;34586;53.616;10.032;2024-03-23T10:31:31;9.20;99.90
10873;DHT22;34586;53.616;10.032;2024-03-23T10:33:57;9.30;99.90
10873;DHT22;34586;53.616;10.032;2024-03-23T10:36:24;9.40;99.90
10873;DHT22;34586;53.616;10.032;2024-03-23T10:38:52;9.50;99.90
10873;DHT22;34586;53.616;10.032;2024-03-23T10:41:18;9.50;99.90
10873;DHT22;34586;53.616;10.032;2024-03-23T10:43:47;9.60;99.90
10873;DHT22;34586;53.616;10.032;2024-03-23T10:46:13;9.40;90.90
10873;DHT22;34586;53.616;10.032;2024-03-23T10:48:39;9.40;99.90
10873;DHT22;34586;53.616;10.032;2024-03-23T10:51:08;9.40;99.90
10873;DHT22;34586;53.616;10.032;2024-03-23T10:53:34;9.30;99.90
10873;DHT22;34586;53.616;10.032;2024-03-23T10:56:00;9.40;99.90
10873;DHT22;34586;53.616;10.032;2024-03-23T10:58:32;9.50;99.90
10873;DHT22;34586;53.616;10.032;2024-03-23T11:01:02;9.60;99.90
10873;DHT22;34586;53.616;10.032;2024-03-23T11:03:31;9.60;99.90
10873;DHT22;34586;53.616;10.032;2024-03-23T11:05:58;9.80;99.90
10873;DHT22;34586;53.616;10.032;2024-03-23T11:08:35;9.90;99.90
10873;DHT22;34586;53.616;10.032;2024-03-23T11:11:20;10.30;1.00
10873;DHT22;34586;53.616;10.032;2024-03-23T11:13:50;10.60;1.00
10873;DHT22;34586;53.616;10.032;2024-03-23T11:16:27;10.70;99.90
10873;DHT22;34586;53.616;10.032;2024-03-23T11:22:00;11.00;99.90
10873;DHT22;34586;53.616;10.032;2024-03-23T11:24:25;11.20;99.90
10873;DHT22;34586;53.616;10.032;2024-03-23T11:26:51;11.10;99.90
10873;DHT22;34586;53.616;10.032;2024-03-23T11:29:17;11.00;99.90
10873;DHT22;34586;53.616;10.032;2024-03-23T11:34:14;11.60;99.90
10873;DHT22;34586;53.616;10.032;2024-03-23T11:36:40;11.80;1.00
10873;DHT22;34586;53.616;10.032;2024-03-23T11:39:15;12.00;1.00
10873;DHT22;34586;53.616;10.032;2024-03-23T11:41:56;11.80;1.00
10873;DHT22;34586;53.616;10.032;2024-03-23T11:44:23;11.80;1.00
10873;DHT22;34586;53.616;10.032;2024-03-23T11:46:50;11.80;1.00
10873;DHT22;34586;53.616;10.032;2024-03-23T11:49:28;11.70;1.00
10873;DHT22;34586;53.616;10.032;2024-03-23T11:51:55;11.60;1.00
10873;DHT22;34586;53.616;10.032;2024-03-23T11:54:22;11.70;1.00
10873;DHT22;34586;53.616;10.032;2024-03-23T11:57:04;11.50;1.00
10873;DHT22;34586;53.616;10.032;2024-03-23T11:59:40;11.20;1.00
10873;DHT22;34586;53.616;10.032;2024-03-23T12:02:13;11.10;1.00
10873;DHT22;34586;53.616;10.032;2024-03-23T12:04:42;10.80;99.90
10873;DHT22;34586;53.616;10.032;2024-03-23T12:07:18;10.10;1.00
10873;DHT22;34586;53.616;10.032;2024-03-23T12:10:04;9.40;1.00
10873;DHT22;34586;53.616;10.032;2024-03-23T12:12:31;8.90;1.00
10873;DHT22;34586;53.616;10.032;2024-03-23T12:15:05;8.50;1.00
10873;DHT22;34586;53.616;10.032;2024-03-23T12:17:31;8.00;38.70
10873;DHT22;34586;53.616;10.032;2024-03-23T12:19:57;7.70;99.90
10873;DHT22;34586;53.616;10.032;2024-03-23T12:22:23;7.40;99.90
10873;DHT22;34586;53.616;10.032;2024-03-23T12:24:49;7.50;99.90
10873;DHT22;34586;53.616;10.032;2024-03-23T12:27:15;7.50;99.90
10873;DHT22;34586;53.616;10.032;2024-03-23T12:29:41;7.70;99.90
10873;DHT22;34586;53.616;10.032;2024-03-23T12:32:11;8.30;99.90
10873;DHT22;34586;53.616;10.032;2024-03-23T12:34:37;9.10;99.90
10873;DHT22;34586;53.616;10.032;2024-03-23T12:37:03;9.90;99.50
10873;DHT22;34586;53.616;10.032;2024-03-23T12:39:29;10.30;1.00
10873;DHT22;34586;53.616;10.032;2024-03-23T12:41:54;10.20;1.00
10873;DHT22;34586;53.616;10.032;2024-03-23T12:44:20;10.00;1.00
10873;DHT22;34586;53.616;10.032;2024-03-23T12:46:46;9.60;1.00
10873;DHT22;34586;53.616;10.032;2024-03-23T12:49:12;9.00;1.00
10873;DHT22;34586;53.616;10.032;2024-03-23T12:51:38;8.30;6.60
10873;DHT22;34586;53.616;10.032;2024-03-23T12:54:03;7.90;48.70
10873;DHT22;34586;53.616;10.032;2024-03-23T12:56:29;7.70;99.90
10873;DHT22;34586;53.616;10.032;2024-03-23T12:58:55;7.40;99.90
10873;DHT22;34586;53.616;10.032;2024-03-23T13:01:26;7.40;99.90
10873;DHT22;34586;53.616;10.032;2024-03-23T13:03:52;7.30;99.90
10873;DHT22;34586;53.616;10.032;2024-03-23T13:06:18;7.40;99.90
10873;DHT22;34586;53.616;10.032;2024-03-23T13:08:45;7.30;90.30
10873;DHT22;34586;53.616;10.032;2024-03-23T13:11:11;7.30;99.90
10873;DHT22;34586;53.616;10.032;2024-03-23T13:13:37;7.40;99.90
10873;DHT22;34586;53.616;10.032;2024-03-23T13:16:04;7.50;99.90
10873;DHT22;34586;53.616;10.032;2024-03-23T13:18:31;7.70;61.90
10873;DHT22;34586;53.616;10.032;2024-03-23T13:20:56;7.80;47.60
10873;DHT22;34586;53.616;10.032;2024-03-23T13:23:22;7.90;75.80
10873;DHT22;34586;53.616;10.032;2024-03-23T13:25:56;8.10;14.50
10873;DHT22;34586;53.616;10.032;2024-03-23T13:28:22;8.10;1.00
10873;DHT22;34586;53.616;10.032;2024-03-23T13:30:55;8.10;1.00
10873;DHT22;34586;53.616;10.032;2024-03-23T13:33:21;8.10;1.00
10873;DHT22;34586;53.616;10.032;2024-03-23T13:35:53;8.10;1.00
10873;DHT22;34586;53.616;10.032;2024-03-23T13:38:19;8.20;46.30
10873;DHT22;34586;53.616;10.032;2024-03-23T13:40:56;8.30;47.50
10873;DHT22;34586;53.616;10.032;2024-03-23T13:43:22;8.60;4.80
10873;DHT22;34586;53.616;10.032;2024-03-23T13:45:51;9.20;98.60
10873;DHT22;34586;53.616;10.032;2024-03-23T13:48:18;10.00;13.50
10873;DHT22;34586;53.616;10.032;2024-03-23T13:50:45;10.20;1.00
10873;DHT22;34586;53.616;10.032;2024-03-23T13:53:12;10.20;1.00
10873;DHT22;34586;53.616;10.032;2024-03-23T13:55:46;10.20;1.00
10873;DHT22;34586;53.616;10.032;2024-03-23T13:58:12;10.00;1.00
10873;DHT22;34586;53.616;10.032;2024-03-23T14:00:38;9.80;1.00
10873;DHT22;34586;53.616;10.032;2024-03-23T14:03:03;9.70;1.00
10873;DHT22;34586;53.616;10.032;2024-03-23T14:05:29;9.40;1.00
10873;DHT22;34586;53.616;10.032;2024-03-23T14:07:54;9.40;1.00
10873;DHT22;34586;53.616;10.032;2024-03-23T14:10:20;9.20;1.00
10873;DHT22;34586;53.616;10.032;2024-03-23T14:12:46;9.20;1.00
10873;DHT22;34586;53.616;10.032;2024-03-23T14:15:11;9.10;1.00
10873;DHT22;34586;53.616;10.032;2024-03-23T14:17:37;9.20;1.00
10873;DHT22;34586;53.616;10.032;2024-03-23T14:20:04;9.50;1.00
10873;DHT22;34586;53.616;10.032;2024-03-23T14:22:31;10.30;1.00
10873;DHT22;34586;53.616;10.032;2024-03-23T14:24:57;10.90;99.90
10873;DHT22;34586;53.616;10.032;2024-03-23T14:27:24;11.20;99.90
10873;DHT22;34586;53.616;10.032;2024-03-23T14:29:49;11.60;99.90
10873;DHT22;34586;53.616;10.032;2024-03-23T14:32:15;11.40;99.90
10873;DHT22;34586;53.616;10.032;2024-03-23T14:34:41;11.40;99.90
10873;DHT22;34586;53.616;10.032;2024-03-23T14:37:07;11.30;99.90
10873;DHT22;34586;53.616;10.032;2024-03-23T14:39:33;11.00;99.90
10873;DHT22;34586;53.616;10.032;2024-03-23T14:42:03;11.00;99.90
10873;DHT22;34586;53.616;10.032;2024-03-23T14:44:29;10.90;99.90
10873;DHT22;34586;53.616;10.032;2024-03-23T14:46:54;10.60;1.00
10873;DHT22;34586;53.616;10.032;2024-03-23T14:49:23;10.50;99.90
10873;DHT22;34586;53.616;10.032;2024-03-23T14:51:49;10.30;99.90
10873;DHT22;34586;53.616;10.032;2024-03-23T14:54:15;10.10;1.00
10873;DHT22;34586;53.616;10.032;2024-03-23T14:56:41;9.70;1.00
10873;DHT22;34586;53.616;10.032;2024-03-23T14:59:06;9.50;1.00
10873;DHT22;34586;53.616;10.032;2024-03-23T15:01:33;9.30;1.00
10873;DHT22;34586;53.616;10.032;2024-03-23T15:03:59;9.10;1.00
10873;DHT22;34586;53.616;10.032;2024-03-23T15:06:25;8.80;47.10
10873;DHT22;34586;53.616;10.032;2024-03-23T15:08:50;8.40;68.80
10873;DHT22;34586;53.616;10.032;2024-03-23T15:11:16;8.10;99.90
10873;DHT22;34586;53.616;10.032;2024-03-23T15:13:44;7.90;86.40
10873;DHT22;34586;53.616;10.032;2024-03-23T15:16:10;7.80;97.20
10873;DHT22;34586;53.616;10.032;2024-03-23T15:18:35;7.70;99.90
10873;DHT22;34586;53.616;10.032;2024-03-23T15:21:02;7.80;99.90
10873;DHT22;34586;53.616;10.032;2024-03-23T15:23:30;8.00;37.50
10873;DHT22;34586;53.616;10.032;2024-03-23T15:26:00;8.40;99.90
10873;DHT22;34586;53.616;10.032;2024-03-23T15:28:27;8.60;1.00
10873;DHT22;34586;53.616;10.032;2024-03-23T15:31:03;8.80;1.00
10873;DHT22;34586;53.616;10.032;2024-03-23T15:33:29;9.00;45.40
10873;DHT22;34586;53.616;10.032;2024-03-23T15:35:58;9.10;10.40
10873;DHT22;34586;53.616;10.032;2024-03-23T15:38:24;9.00;1.00
10873;DHT22;34586;53.616;10.032;2024-03-23T15:40:53;9.10;1.00
10873;DHT22;34586;53.616;10.032;2024-03-23T15:43:19;9.00;1.00
10873;DHT22;34586;53.616;10.032;2024-03-23T15:45:53;9.00;1.00
10873;DHT22;34586;53.616;10.032;2024-03-23T15:48:18;9.00;1.00
10873;DHT22;34586;53.616;10.032;2024-03-23T15:50:53;9.00;1.00
10873;DHT22;34586;53.616;10.032;2024-03-23T15:53:23;8.70;1.00
10873;DHT22;34586;53.616;10.032;2024-03-23T15:55:56;8.70;1.00
10873;DHT22;34586;53.616;10.032;2024-03-23T15:58:22;8.50;1.00
10873;DHT22;34586;53.616;10.032;2024-03-23T16:01:05;8.70;1.00
10873;DHT22;34586;53.616;10.032;2024-03-23T16:03:31;8.70;58.70
10873;DHT22;34586;53.616;10.032;2024-03-23T16:06:00;8.70;66.00
10873;DHT22;34586;53.616;10.032;2024-03-23T16:08:26;8.60;1.00
10873;DHT22;34586;53.616;10.032;2024-03-23T16:10:52;8.70;85.70
10873;DHT22;34586;53.616;10.032;2024-03-23T16:13:18;8.60;76.70
10873;DHT22;34586;53.616;10.032;2024-03-23T16:15:44;8.50;98.10
10873;DHT22;34586;53.616;10.032;2024-03-23T16:18:10;8.40;43.60
10873;DHT22;34586;53.616;10.032;2024-03-23T16:20:36;8.40;13.40
10873;DHT22;34586;53.616;10.032;2024-03-23T16:23:02;8.40;4.40
10873;DHT22;34586;53.616;10.032;2024-03-23T16:25:28;8.40;84.50
10873;DHT22;34586;53.616;10.032;2024-03-23T16:27:54;8.30;70.20